Archival Weather

Republic

Farmingdale, New York (KFRG)

Report from: Wednesday, February 21, 2024 1:53 AM EST
Current time: Monday, June 24, 2024 6:35 AM EDT

Current weather – Weather history – Daily summaries
Weather forecast

Temperature-3.9°C (25.0°F)
Wind chill-6.3°C (20.7°F)
Dew point-8.3°C (17.1°F)
Winds 3 kts (1.5 m/s, 3.5 mph) North (10°)
Visibility8 mi. (12.9 km)
Clouds Sky clear
Altimeter30.49 in.Hg (1033 mB)
Relative humidity71 %
Density altitude-2,932 ft. (-894 m)
Sea-level pressure103.3 kPa (1033 mB, 30.49 in.Hg)
Remarks Fully automated report
Automated weather observing station without precipitation discriminator
Freezing rain sensor not operating
Flight conditions Visual Meteorological Conditions
Raw dataKFRG 210653Z AUTO 01003KT 8SM CLR M04/M08 A3049 RMK AO1 SLP325 T10391083 FZRANO
An error has occurred. This application may no longer respond until reloaded. Reload 🗙